Time;durP1;ratioP1;P1;durP2;ratioP2;P2;SDS_P1;SDS_P2;PMS_P1;PMS_P2;Temp;Humidity;BMP_temperature;BMP_pressure;BME280_temperature;BME280_humidity;BME280_pressure;Samples;Min_cycle;Max_cycle;Signal;HPM_P1;HPM_P2
2022/10/01 00:01:11;;;;;;;27.15;16.42;;;;;;;18.47;100.00;-318.03;1764816;80;21060;-74
2022/10/01 00:03:38;;;;;;;28.38;18.27;;;;;;;18.47;100.00;-2677.69;1770043;79;21115;-74
2022/10/01 00:06:17;;;;;;;25.55;17.77;;;;;;;18.46;100.00;-4025.34;1766573;80;21097;-72
2022/10/01 00:08:47;;;;;;;37.40;19.42;;;;;;;18.47;100.00;-5204.05;1769804;80;21097;-73
2022/10/01 00:11:22;;;;;;;37.88;19.40;;;;;;;18.45;100.00;-6382.28;1773060;78;21100;-73
2022/10/01 00:13:49;;;;;;;34.90;19.65;;;;;;;18.44;100.00;-6887.09;1767637;80;21220;-72
2022/10/01 00:16:22;;;;;;;33.40;21.55;;;;;;;18.43;100.00;-7560.01;1768840;79;21262;-73
2022/10/01 00:18:49;;;;;;;33.92;22.67;;;;;;;18.40;100.00;-8232.69;1770486;80;21015;-73
2022/10/01 00:21:26;;;;;;;38.15;25.30;;;;;;;18.40;100.00;-8569.01;1773250;79;21045;-73
2022/10/01 00:23:58;;;;;;;43.05;28.55;;;;;;;18.37;100.00;-9073.28;1763900;80;21014;-73
2022/10/01 00:26:28;;;;;;;42.73;28.60;;;;;;;18.36;100.00;-9913.75;1761518;80;21009;-73
2022/10/01 00:28:57;;;;;;;46.68;29.77;;;;;;;18.36;100.00;-10417.97;1771783;80;21852;-72
2022/10/01 00:31:25;;;;;;;40.75;27.52;;;;;;;18.36;100.00;-11258.16;1775512;80;21063;-72
2022/10/01 00:33:53;;;;;;;37.60;27.42;;;;;;;18.44;100.00;-11763.10;1763292;80;21024;-73
2022/10/01 00:36:20;;;;;;;36.15;27.32;;;;;;;18.47;100.00;-11091.25;1776724;80;21037;-72
2022/10/01 00:38:47;;;;;;;41.15;27.73;;;;;;;18.39;100.00;-11762.46;1772786;80;21574;-71
2022/10/01 00:41:14;;;;;;;41.92;30.12;;;;;;;18.39;100.00;-12770.29;1772352;80;21194;-71
2022/10/01 00:43:47;;;;;;;43.50;29.98;;;;;;;18.38;100.00;-13777.66;1770872;79;20929;-72
2022/10/01 00:46:25;;;;;;;40.90;27.13;;;;;;;18.41;100.00;-14617.49;1767422;79;20992;-71
2022/10/01 00:49:10;;;;;;;38.42;23.87;;;;;;;18.45;100.00;-15121.70;1778811;80;21020;-72
2022/10/01 00:51:42;;;;;;;32.70;23.30;;;;;;;18.50;100.00;-14786.84;1796527;79;21767;-72
2022/10/01 00:54:13;;;;;;;35.90;25.35;;;;;;;18.51;100.00;-14619.12;1788248;79;21098;-71
2022/10/01 00:56:41;;;;;;;36.83;26.87;;;;;;;18.53;100.00;-14787.25;1791990;79;21047;-72
2022/10/01 00:59:07;;;;;;;47.35;33.67;;;;;;;18.47;100.00;-15289.89;1794209;79;21037;-72
2022/10/01 01:01:35;;;;;;;50.08;35.50;;;;;;;18.52;100.00;-14955.04;1767822;80;21077;-71
2022/10/01 01:04:01;;;;;;;45.12;34.23;;;;;;;18.53;100.00;-13779.90;1782938;80;21281;-73
2022/10/01 01:06:29;;;;;;;54.55;43.98;;;;;;;18.51;100.00;-13947.52;1780407;80;21224;-73
2022/10/01 01:08:56;;;;;;;59.45;48.10;;;;;;;18.48;100.00;-15290.06;1780844;80;21434;-73
2022/10/01 01:11:49;;;;;;;82.60;61.23;;;;;;;18.49;100.00;-15625.90;1772844;80;21013;-73
2022/10/01 01:14:26;;;;;;;82.20;64.60;;;;;;;18.51;100.00;-15794.00;1771813;80;21008;-74
2022/10/01 01:17:00;;;;;;;84.10;68.95;;;;;;;18.51;100.00;-15458.43;1710942;82;22172;-71
2022/10/01 01:20:08;;;;;;;83.40;66.17;;;;;;;18.51;100.00;-15458.43;1740224;81;21193;-62
2022/10/01 01:22:36;;;;;;;88.17;69.58;;;;;;;18.52;100.00;-15458.61;1757846;81;21055;-63
2022/10/01 01:25:20;;;;;;;88.27;68.55;;;;;;;18.51;100.00;-15122.73;1754423;81;21058;-63
2022/10/01 01:28:04;;;;;;;79.62;64.72;;;;;;;18.52;100.00;-14787.16;1769845;80;20973;-62
2022/10/01 01:30:31;;;;;;;78.95;64.97;;;;;;;18.54;100.00;-14115.90;1770521;80;21049;-62
2022/10/01 01:33:06;;;;;;;80.00;62.25;;;;;;;18.53;100.00;-13276.06;1771501;79;22206;-62
2022/10/01 01:35:53;;;;;;;68.75;57.65;;;;;;;18.52;100.00;-12604.04;1766888;80;21443;-62
2022/10/01 01:38:26;;;;;;;70.37;56.68;;;;;;;18.52;100.00;-11932.00;1770415;80;21016;-62
2022/10/01 01:40:54;;;;;;;69.97;54.42;;;;;;;18.51;100.00;-10755.47;1767286;80;22146;-63
2022/10/01 01:43:32;;;;;;;64.12;52.33;;;;;;;18.51;100.00;-10083.13;1774439;80;21012;-62
2022/10/01 01:45:59;;;;;;;60.83;49.03;;;;;;;18.49;100.00;-9074.12;1771811;80;21163;-63
2022/10/01 01:48:27;;;;;;;59.30;47.25;;;;;;;18.47;100.00;-7560.23;1740747;81;21069;-61
2022/10/01 01:51:05;;;;;;;55.75;46.10;;;;;;;18.47;100.00;-5709.08;1731923;81;21027;-62
2022/10/01 01:53:34;;;;;;;55.98;44.70;;;;;;;18.45;100.00;-4193.76;1720526;82;21067;-62
2022/10/01 01:56:01;;;;;;;54.65;43.25;;;;;;;18.42;100.00;-2172.38;1710586;83;21018;-61
2022/10/01 01:58:28;;;;;;;57.03;46.18;;;;;;;18.39;100.00;-318.55;1722341;83;22125;-62
2022/10/01 02:00:55;;;;;;;59.03;47.10;;;;;;;18.37;100.00;1873.62;1798508;79;21097;-72
2022/10/01 02:03:24;;;;;;;64.17;51.95;;;;;;;18.34;100.00;3898.18;1789028;79;21545;-72
2022/10/01 02:06:03;;;;;;;65.80;52.78;;;;;;;18.32;100.00;5417.41;1798177;79;21567;-61
2022/10/01 02:08:40;;;;;;;61.70;48.50;;;;;;;18.30;100.00;6430.39;1773331;79;20995;-62
2022/10/01 02:11:22;;;;;;;69.75;50.17;;;;;;;18.28;100.00;8457.54;1771002;80;21032;-62
2022/10/01 02:14:01;;;;;;;63.35;48.30;;;;;;;18.24;100.00;10823.40;1792104;78;21066;-61
2022/10/01 02:16:48;;;;;;;65.90;49.88;;;;;;;18.20;100.00;13529.38;1795040;79;20996;-62
2022/10/01 02:19:32;;;;;;;70.65;51.65;;;;;;;18.15;100.00;16067.39;1773441;79;20913;-62
2022/10/01 02:22:08;;;;;;;65.30;52.75;;;;;;;18.12;100.00;17590.94;1788164;79;21021;-63
2022/10/01 02:24:57;;;;;;;69.97;54.00;;;;;;;18.10;100.00;18437.46;1795022;79;21081;-61
2022/10/01 02:27:40;;;;;;;70.87;55.67;;;;;;;18.09;100.00;19793.11;1805444;79;21131;-62
2022/10/01 02:30:08;;;;;;;75.40;55.12;;;;;;;18.07;100.00;20470.52;1785478;79;21648;-62
2022/10/01 02:32:36;;;;;;;71.55;56.48;;;;;;;18.09;100.00;21489.14;1778803;79;21574;-62
2022/10/01 02:35:07;;;;;;;68.10;55.03;;;;;;;18.10;100.00;23525.51;1771816;79;21016;-62
2022/10/01 02:37:34;;;;;;;69.85;56.13;;;;;;;18.09;100.00;25732.25;1780004;79;21250;-63
2022/10/01 02:40:00;;;;;;;70.32;54.98;;;;;;;18.08;100.00;28620.27;1780890;79;21008;-63
2022/10/01 02:42:27;;;;;;;72.85;57.20;;;;;;;18.03;100.00;32699.98;1783700;79;20988;-63
2022/10/01 02:44:55;;;;;;;71.65;57.98;;;;;;;18.00;100.00;35422.02;1750571;79;21023;-63
2022/10/01 02:47:32;;;;;;;75.52;58.00;;;;;;;17.99;100.00;37295.30;1733794;82;21354;-63
2022/10/01 02:49:57;;;;;;;69.90;57.90;;;;;;;17.96;100.00;40532.34;1733780;81;21231;-63
2022/10/01 02:52:35;;;;;;;78.33;60.43;;;;;;;17.93;100.00;43089.01;1734293;81;21026;-73
2022/10/01 02:55:28;;;;;;;74.95;59.65;;;;;;;17.89;100.00;44110.84;1751785;81;21049;-71
2022/10/01 02:57:56;;;;;;;71.77;58.70;;;;;;;17.86;100.00;45986.85;1744969;81;21108;-71
2022/10/01 03:00:25;;;;;;;77.53;62.67;;;;;;;17.83;100.00;48034.20;1735869;81;21077;-72
2022/10/01 03:02:52;;;;;;;77.60;61.23;;;;;;;17.79;100.00;48372.54;1740434;82;21233;-72
2022/10/01 03:05:19;;;;;;;77.92;61.00;;;;;;;17.75;100.00;50591.96;1741565;81;21096;-71
2022/10/01 03:07:46;;;;;;;81.53;65.45;;;;;;;17.69;100.00;52810.23;1739245;80;21493;-72
2022/10/01 03:10:14;;;;;;;80.85;64.47;;;;;;;17.65;100.00;54517.86;1737060;79;21055;-63
2022/10/01 03:12:45;;;;;;;81.53;63.45;;;;;;;17.60;100.00;55711.92;1777188;79;21033;-63
2022/10/01 03:15:13;;;;;;;89.40;64.95;;;;;;;17.55;100.00;55706.95;1763850;79;21266;-63
2022/10/01 03:17:40;;;;;;;84.85;66.12;;;;;;;17.51;100.00;54162.98;1731244;79;21023;-63
2022/10/01 03:20:08;;;;;;;87.22;66.55;;;;;;;17.49;100.00;52791.85;1725548;81;22002;-62
2022/10/01 03:22:36;;;;;;;86.95;68.70;;;;;;;17.46;100.00;51421.39;1735327;82;21055;-63
2022/10/01 03:25:04;;;;;;;87.02;70.78;;;;;;;17.43;100.00;50906.23;1735621;81;21054;-62
2022/10/01 03:27:31;;;;;;;90.28;69.17;;;;;;;17.40;100.00;49194.57;1731109;82;21241;-62
2022/10/01 03:29:57;;;;;;;83.15;69.35;;;;;;;17.36;100.00;48336.52;1737957;82;20978;-70
2022/10/01 03:32:24;;;;;;;87.15;71.28;;;;;;;17.33;100.00;47309.77;1735606;82;21110;-71
2022/10/01 03:34:51;;;;;;;88.95;72.05;;;;;;;17.30;100.00;45088.92;1731954;82;20964;-71
2022/10/01 03:37:18;;;;;;;93.25;74.05;;;;;;;17.29;100.00;43382.01;1736684;82;21074;-70
2022/10/01 03:39:45;;;;;;;91.92;74.80;;;;;;;17.27;100.00;40142.13;1725954;82;21129;-71
2022/10/01 03:42:12;;;;;;;91.87;73.52;;;;;;;17.25;100.00;38948.43;1737478;81;21014;-62
2022/10/01 03:44:39;;;;;;;92.75;76.53;;;;;;;17.21;100.00;38945.93;1719560;81;21055;-70
2022/10/01 03:47:06;;;;;;;98.60;78.17;;;;;;;17.19;100.00;38944.50;1708185;82;21404;-70
2022/10/01 03:49:33;;;;;;;103.30;85.72;;;;;;;17.17;100.00;38091.85;1709685;82;21601;-70
2022/10/01 03:52:02;;;;;;;108.00;88.12;;;;;;;17.17;100.00;37411.37;1722116;82;21156;-70
2022/10/01 03:54:34;;;;;;;115.37;89.85;;;;;;;17.15;100.00;36559.17;1714738;82;21063;-69
2022/10/01 03:56:57;;;;;;;112.52;90.65;;;;;;;17.15;100.00;34518.07;1709420;82;21044;-70
2022/10/01 03:59:26;;;;;;;106.47;87.27;;;;;;;17.14;100.00;33667.36;1732727;82;21035;-69
2022/10/01 04:01:53;;;;;;;113.75;87.02;;;;;;;17.14;100.00;31797.96;1727913;82;21019;-69
2022/10/01 04:04:20;;;;;;;107.03;87.02;;;;;;;17.13;100.00;30268.65;1727605;82;21843;-70
2022/10/01 04:06:46;;;;;;;106.55;85.75;;;;;;;17.13;100.00;27213.32;1712863;82;21056;-70
2022/10/01 04:09:13;;;;;;;104.90;83.67;;;;;;;17.15;100.00;25348.54;1732968;82;21532;-70
2022/10/01 04:11:40;;;;;;;104.75;83.33;;;;;;;17.15;100.00;23822.49;1728675;82;21098;-69
2022/10/01 04:14:07;;;;;;;109.30;84.97;;;;;;;17.16;100.00;21959.02;1721280;82;21107;-70
2022/10/01 04:16:35;;;;;;;103.42;82.55;;;;;;;17.16;100.00;20434.75;1724877;82;21921;-70
2022/10/01 04:19:03;;;;;;;97.90;79.97;;;;;;;17.18;100.00;19589.23;1731827;82;21536;-70
2022/10/01 04:21:30;;;;;;;106.63;85.57;;;;;;;17.22;100.00;18744.04;1732260;82;21090;-70
2022/10/01 04:23:56;;;;;;;106.83;85.38;;;;;;;17.25;100.00;17898.98;1725416;82;21098;-69
2022/10/01 04:26:24;;;;;;;110.50;88.12;;;;;;;17.27;100.00;17392.26;1719327;82;21102;-70
2022/10/01 04:28:50;;;;;;;104.95;82.35;;;;;;;17.29;100.00;18577.63;1731408;82;21856;-69
2022/10/01 04:31:23;;;;;;;107.80;83.70;;;;;;;17.33;100.00;18071.16;1706426;82;21130;-62
2022/10/01 04:33:52;;;;;;;101.25;78.45;;;;;;;17.36;100.00;19426.61;1723752;82;21004;-62
2022/10/01 04:36:19;;;;;;;95.12;77.95;;;;;;;17.43;100.00;19768.05;1723369;82;21052;-62
2022/10/01 04:38:46;;;;;;;96.78;78.62;;;;;;;17.52;100.00;19940.82;1731656;82;21086;-62
2022/10/01 04:41:13;;;;;;;100.50;82.97;;;;;;;17.62;100.00;19944.63;1716968;81;21116;-62
2022/10/01 04:43:40;;;;;;;97.33;80.03;;;;;;;17.70;100.00;26732.51;1729397;81;21492;-62
2022/10/01 04:46:07;;;;;;;93.37;78.15;;;;;;;17.98;100.00;21315.07;1721753;81;21026;-63
2022/10/01 04:48:33;;;;;;;92.82;78.30;;;;;;;18.43;100.00;22351.67;1713188;82;21035;-63
2022/10/01 04:51:00;;;;;;;86.47;70.95;;;;;;;18.82;100.00;39227.63;1717812;82;21544;-62
2022/10/01 04:53:27;;;;;;;80.95;67.78;;;;;;;19.07;100.00;64616.98;1722162;82;21228;-62
2022/10/01 04:55:55;;;;;;;85.20;67.60;;;;;;;19.21;100.00;105318.94;1732969;82;21086;-61
2022/10/01 04:58:22;;;;;;;83.03;66.30;;;;;;;19.22;100.00;152483.19;1732366;82;21083;-62
2022/10/01 05:00:49;;;;;;;78.67;64.30;;;;;;;19.10;100.00;152454.45;1731452;82;21015;-63
2022/10/01 05:03:17;;;;;;;77.03;63.30;;;;;;;19.11;100.00;152457.06;1709688;82;21043;-63
2022/10/01 05:05:45;;;;;;;76.37;62.67;;;;;;;19.09;100.00;152451.84;1720007;82;21539;-64
2022/10/01 05:08:12;;;;;;;79.62;63.80;;;;;;;19.09;100.00;152450.56;1729961;82;21019;-63
2022/10/01 05:10:39;;;;;;;72.70;61.37;;;;;;;19.11;100.00;152455.78;1729627;82;21067;-63
2022/10/01 05:13:06;;;;;;;71.07;58.48;;;;;;;19.14;100.00;152463.61;1719796;82;21126;-63
2022/10/01 05:15:34;;;;;;;77.12;60.55;;;;;;;19.23;100.00;152487.13;1735179;82;21035;-62
2022/10/01 05:18:01;;;;;;;86.37;58.58;;;;;;;19.33;100.00;152511.89;1722562;82;21577;-63
2022/10/01 05:20:28;;;;;;;76.35;57.48;;;;;;;19.55;100.00;152566.72;1713869;82;22383;-62
2022/10/01 05:22:55;;;;;;;68.90;54.70;;;;;;;19.87;100.00;152648.98;1724371;82;21050;-63
2022/10/01 05:25:24;;;;;;;79.22;52.98;;;;;;;20.13;100.00;152713.05;1717623;82;20924;-64
2022/10/01 05:27:50;;;;;;;76.40;52.60;;;;;;;20.46;100.00;152796.67;1711712;82;20992;-63
2022/10/01 05:30:22;;;;;;;79.97;50.33;;;;;;;20.86;99.17;152898.59;1712182;82;21773;-64
2022/10/01 05:32:59;;;;;;;66.97;46.95;;;;;;;21.32;94.63;153013.61;1730692;81;21062;-64
2022/10/01 05:35:26;;;;;;;66.57;45.05;;;;;;;21.56;89.84;153075.06;1780858;79;21060;-64
2022/10/01 05:37:58;;;;;;;71.92;45.23;;;;;;;21.73;87.34;153118.25;1776635;79;21046;-64
2022/10/01 05:40:27;;;;;;;60.10;42.83;;;;;;;22.11;85.11;153213.73;1782603;79;21080;-62
2022/10/01 05:42:55;;;;;;;59.75;42.85;;;;;;;22.28;80.67;153256.87;1775994;79;21819;-64
2022/10/01 05:45:22;;;;;;;62.10;42.70;;;;;;;22.13;79.54;153217.63;1784007;79;21565;-64
2022/10/01 05:48:00;;;;;;;62.17;39.78;;;;;;;21.89;79.42;153157.48;1786465;78;21042;-63
2022/10/01 05:50:31;;;;;;;68.35;39.18;;;;;;;21.70;79.60;153110.41;1784021;78;21442;-64
2022/10/01 05:52:59;;;;;;;56.98;36.30;;;;;;;21.65;79.70;153097.34;1784071;78;21446;-63
2022/10/01 05:55:30;;;;;;;56.18;36.23;;;;;;;21.60;78.72;153084.23;1787167;79;21187;-63
2022/10/01 05:58:06;;;;;;;69.12;37.08;;;;;;;21.54;78.48;153068.50;1786767;79;21036;-63
2022/10/01 06:00:33;;;;;;;50.00;32.23;;;;;;;21.54;78.70;153068.50;1795773;79;21028;-62
2022/10/01 06:03:02;;;;;;;52.23;33.38;;;;;;;21.53;77.46;153067.22;1778190;79;21584;-68
2022/10/01 06:05:29;;;;;;;58.83;33.08;;;;;;;21.56;77.09;153073.78;1784081;78;21059;-68
2022/10/01 06:07:56;;;;;;;61.55;32.78;;;;;;;21.59;76.26;153082.91;1799704;78;21784;-63
2022/10/01 06:10:23;;;;;;;52.98;31.65;;;;;;;21.65;75.74;153096.02;1786699;79;21041;-69
2022/10/01 06:12:50;;;;;;;52.40;30.72;;;;;;;21.71;75.34;153113.02;1793631;77;21024;-70
2022/10/01 06:15:17;;;;;;;66.97;36.13;;;;;;;21.79;75.09;153131.36;1802318;78;21012;-70
2022/10/01 06:17:44;;;;;;;69.22;37.48;;;;;;;21.84;78.34;153144.42;1793426;77;21518;-69
2022/10/01 06:20:14;;;;;;;54.53;33.25;;;;;;;21.89;80.58;153157.48;1785437;79;21498;-69
2022/10/01 06:22:41;;;;;;;52.98;33.30;;;;;;;21.94;78.42;153170.55;1781909;78;21017;-69
2022/10/01 06:25:14;;;;;;;49.93;32.13;;;;;;;21.97;77.65;153178.39;1798163;79;21068;-70
2022/10/01 06:27:47;;;;;;;49.13;28.80;;;;;;;22.04;76.65;153196.72;1791864;77;21099;-70
2022/10/01 06:30:15;;;;;;;40.60;26.85;;;;;;;22.09;72.55;153208.47;1799402;77;21735;-69
2022/10/01 06:32:41;;;;;;;47.58;26.40;;;;;;;22.19;72.70;153233.31;1803504;77;22115;-70
2022/10/01 06:35:08;;;;;;;38.45;26.73;;;;;;;22.33;71.91;153269.95;1795344;77;21060;-69
2022/10/01 06:37:38;;;;;;;45.60;30.08;;;;;;;22.48;71.38;153305.31;1788274;78;21341;-69
2022/10/01 06:40:07;;;;;;;66.37;34.83;;;;;;;22.58;72.41;153332.78;1760019;78;21069;-70
2022/10/01 06:42:34;;;;;;;67.35;41.02;;;;;;;22.69;74.64;153360.25;1794852;77;21470;-69
2022/10/01 06:45:01;;;;;;;61.50;39.58;;;;;;;22.75;76.73;153374.66;1783676;79;21094;-70
2022/10/01 06:47:28;;;;;;;64.00;42.10;;;;;;;22.78;77.58;153382.50;1788693;78;21048;-71
2022/10/01 06:49:54;;;;;;;64.32;40.43;;;;;;;22.83;77.59;153395.56;1789266;79;21093;-70
2022/10/01 06:55:08;;;;;;;59.38;37.45;;;;;;;22.92;76.72;153417.81;1781617;79;21002;-71
2022/10/01 06:57:35;;;;;;;57.95;36.28;;;;;;;22.95;75.98;153424.38;1788548;80;21272;-71
2022/10/01 07:00:01;;;;;;;65.57;33.88;;;;;;;23.02;75.34;153442.67;1784153;78;21464;-69
2022/10/01 07:02:29;;;;;;;68.57;35.20;;;;;;;23.20;74.85;153487.17;1782949;80;21100;-71
2022/10/01 07:04:59;;;;;;;70.40;35.85;;;;;;;23.34;73.83;153523.88;1786013;78;21025;-70
2022/10/01 07:07:37;;;;;;;71.17;33.38;;;;;;;23.50;73.81;153564.44;1785214;78;21029;-63
2022/10/01 07:10:05;;;;;;;47.10;29.18;;;;;;;23.85;72.40;153653.42;1785203;79;21143;-61
2022/10/01 07:12:36;;;;;;;41.45;23.95;;;;;;;24.24;68.85;153751.70;1781303;78;21511;-63
2022/10/01 07:15:05;;;;;;;40.50;25.23;;;;;;;24.34;65.12;153775.25;1784329;78;21287;-61
2022/10/01 07:17:33;;;;;;;47.03;26.33;;;;;;;24.36;63.55;153780.50;1782548;80;21072;-62
2022/10/01 07:20:01;;;;;;;48.52;25.52;;;;;;;24.36;64.72;153780.50;1784094;78;21084;-62
2022/10/01 07:22:28;;;;;;;38.05;25.35;;;;;;;24.47;64.44;153809.33;1781569;78;20993;-62
2022/10/01 07:24:54;;;;;;;48.38;24.65;;;;;;;24.55;63.86;153828.97;1779680;78;21029;-62
2022/10/01 07:27:21;;;;;;;53.25;23.92;;;;;;;24.56;63.57;153832.87;1778732;79;21017;-62
2022/10/01 07:29:48;;;;;;;39.73;26.25;;;;;;;24.56;63.07;153832.87;1783284;78;20942;-62
2022/10/01 07:32:15;;;;;;;48.73;26.60;;;;;;;24.56;63.17;153832.87;1787497;78;21184;-70
2022/10/01 07:34:42;;;;;;;52.30;26.15;;;;;;;24.53;64.12;153825.03;1781646;78;21904;-70
2022/10/01 07:37:09;;;;;;;49.70;27.15;;;;;;;24.50;63.80;153817.17;1781501;80;21053;-70
2022/10/01 07:39:36;;;;;;;49.45;26.95;;;;;;;24.48;64.53;153811.94;1783061;80;21107;-70
2022/10/01 07:42:05;;;;;;;48.55;29.20;;;;;;;24.45;65.11;153804.09;1783846;78;21443;-71
2022/10/01 07:44:32;;;;;;;46.08;29.25;;;;;;;24.46;65.35;153806.70;1779256;78;21068;-71
2022/10/01 07:46:59;;;;;;;48.55;30.15;;;;;;;24.52;65.65;153821.08;1782360;78;21495;-71
2022/10/01 07:49:26;;;;;;;43.17;28.25;;;;;;;24.57;65.51;153834.20;1785019;79;20993;-71
2022/10/01 07:51:53;;;;;;;48.35;29.87;;;;;;;24.56;65.66;153832.87;1790751;79;21072;-70
2022/10/01 07:54:22;;;;;;;52.23;28.77;;;;;;;24.60;65.52;153843.34;1795018;79;20965;-70
2022/10/01 07:56:51;;;;;;;52.17;27.50;;;;;;;24.66;65.57;153856.48;1776408;79;21008;-71
2022/10/01 07:59:18;;;;;;;44.45;26.68;;;;;;;24.74;65.10;153877.42;1797877;78;21230;-71
2022/10/01 08:01:50;;;;;;;43.95;26.30;;;;;;;24.82;64.12;153898.41;1802891;79;20985;-71
2022/10/01 08:07:03;;;;;;;27.20;20.92;;;;;;;24.94;61.49;153928.53;1774601;79;21045;-69
2022/10/01 08:09:31;;;;;;;37.55;20.72;;;;;;;24.99;60.68;153941.67;1788930;78;46308;-72
2022/10/01 08:12:01;;;;;;;33.18;20.85;;;;;;;25.08;60.64;153963.89;1781718;78;21219;-71
2022/10/01 08:14:29;;;;;;;34.53;21.20;;;;;;;25.16;59.71;153983.55;1778129;79;21057;-71
2022/10/01 08:16:56;;;;;;;33.88;20.17;;;;;;;25.23;59.89;154000.59;1788777;77;21088;-71
2022/10/01 08:19:23;;;;;;;31.50;19.42;;;;;;;25.32;60.08;154024.20;1795737;77;21042;-70
2022/10/01 08:21:51;;;;;;;32.58;21.55;;;;;;;25.44;59.43;154055.62;1801454;77;21383;-70
2022/10/01 08:24:18;;;;;;;30.08;21.60;;;;;;;25.52;59.57;154074.00;1801190;77;21012;-71
2022/10/01 08:26:52;;;;;;;32.20;20.27;;;;;;;25.58;58.94;154091.05;1790188;77;21311;-70
2022/10/01 08:29:19;;;;;;;27.27;18.55;;;;;;;25.62;58.27;154098.91;1806066;77;21023;-71
2022/10/01 08:31:46;;;;;;;26.30;17.32;;;;;;;25.66;57.63;154110.70;1794671;79;20960;-71
2022/10/01 08:34:13;;;;;;;24.70;16.12;;;;;;;25.73;56.78;154127.75;1798532;77;21068;-70
2022/10/01 08:36:40;;;;;;;19.90;14.68;;;;;;;25.81;56.15;154147.42;1795029;79;21217;-70
2022/10/01 08:39:07;;;;;;;17.55;12.93;;;;;;;25.87;54.61;154163.14;1785243;79;20941;-72
2022/10/01 08:42:01;;;;;;;20.77;13.22;;;;;;;25.92;53.72;154174.94;1791836;77;21058;-70
2022/10/01 08:44:31;;;;;;;22.70;12.53;;;;;;;25.93;52.43;154178.84;1792544;77;21025;-71
2022/10/01 08:47:03;;;;;;;17.25;11.88;;;;;;;25.91;52.13;154173.61;1761928;79;21075;-71
2022/10/01 08:49:34;;;;;;;13.50;9.95;;;;;;;25.92;51.50;154176.23;1781716;79;21427;-71
2022/10/01 08:52:14;;;;;;;15.30;9.18;;;;;;;25.95;50.96;154184.09;1764606;79;21013;-73
2022/10/01 08:54:52;;;;;;;16.50;8.70;;;;;;;25.98;50.24;154192.00;1752073;79;20906;-72
2022/10/01 08:57:27;;;;;;;11.93;8.08;;;;;;;26.01;49.12;154199.84;1792735;78;21005;-71
2022/10/01 08:59:58;;;;;;;11.63;8.13;;;;;;;25.99;48.67;154194.61;1755968;79;21035;-72
2022/10/01 09:02:32;;;;;;;10.30;8.00;;;;;;;25.98;48.78;154192.00;1750326;79;21071;-70
2022/10/01 09:05:05;;;;;;;10.40;7.92;;;;;;;26.02;48.56;154202.47;1735478;81;21042;-73
2022/10/01 09:08:08;;;;;;;10.55;7.12;;;;;;;26.05;47.85;154207.72;1738976;79;21934;-73
2022/10/01 09:10:48;;;;;;;8.15;6.80;;;;;;;;;;1739149;81;21090;-72
2022/10/01 09:13:50;;;;;;;13.28;5.60;;;;;;;26.01;46.96;154199.84;1734381;80;21482;-72
2022/10/01 09:16:34;;;;;;;9.55;6.85;;;;;;;26.03;47.06;154205.09;1747049;80;21135;-63
2022/10/01 09:19:21;;;;;;;7.67;6.20;;;;;;;26.07;47.14;154212.95;1765057;79;21558;-62
2022/10/01 09:22:00;;;;;;;12.45;8.73;;;;;;;26.09;47.02;154218.19;1770663;79;21003;-63
2022/10/01 09:24:45;;;;;;;10.43;8.83;;;;;;;26.06;47.44;154210.33;1771382;79;21073;-63
2022/10/01 09:27:15;;;;;;;14.93;8.00;;;;;;;25.93;47.84;154177.56;1753592;79;21046;-63
2022/10/01 09:30:04;;;;;;;9.98;7.47;;;;;;;25.82;47.65;154150.03;1688508;82;21852;-63
2022/10/01 09:32:37;;;;;;;10.58;8.50;;;;;;;25.74;47.89;154130.38;1686378;83;21538;-63
2022/10/01 09:35:16;;;;;;;13.73;8.77;;;;;;;25.69;48.23;154117.28;1746190;80;21021;-61
2022/10/01 09:38:00;;;;;;;15.43;8.58;;;;;;;25.62;48.34;154100.23;1743897;80;21017;-62
2022/10/01 09:40:48;;;;;;;9.03;7.70;;;;;;;25.51;48.88;154071.37;1748484;80;21041;-62
2022/10/01 09:43:18;;;;;;;17.40;9.43;;;;;;;25.42;48.51;154050.39;1753392;80;21511;-63
2022/10/01 09:45:44;;;;;;;11.90;8.33;;;;;;;25.31;49.12;154021.53;1748897;80;21032;-62
2022/10/01 09:48:21;;;;;;;10.58;8.08;;;;;;;25.24;49.14;154004.55;1791602;79;21071;-62
2022/10/01 09:50:54;;;;;;;11.00;7.40;;;;;;;25.24;49.41;154003.22;1772864;80;21024;-63
2022/10/01 09:53:29;;;;;;;8.38;6.25;;;;;;;25.27;49.37;154011.06;1770767;80;21194;-63
2022/10/01 09:56:01;;;;;;;9.28;6.10;;;;;;;25.32;49.03;154024.20;1722473;82;21246;-63
2022/10/01 09:58:28;;;;;;;10.75;5.72;;;;;;;25.43;48.42;154051.72;1770231;80;21060;-72
2022/10/01 10:00:55;;;;;;;7.35;5.58;;;;;;;25.51;47.78;154071.37;1777131;80;21403;-71
2022/10/01 10:03:30;;;;;;;6.40;5.03;;;;;;;25.53;47.16;154077.95;1769274;80;21494;-73
2022/10/01 10:05:58;;;;;;;7.65;5.55;;;;;;;25.51;46.71;154071.37;1788226;79;21287;-72
2022/10/01 10:08:31;;;;;;;7.70;4.78;;;;;;;25.46;46.55;154060.86;1788480;79;21126;-71
2022/10/01 10:11:01;;;;;;;7.00;5.40;;;;;;;25.44;46.00;154055.62;1797057;79;20992;-73
2022/10/01 10:13:39;;;;;;;8.10;6.00;;;;;;;25.42;46.19;154050.39;1788221;78;20917;-71
2022/10/01 10:16:26;;;;;;;7.58;5.40;;;;;;;25.39;46.58;154041.20;1784458;79;21096;-73
2022/10/01 10:19:08;;;;;;;6.92;4.72;;;;;;;25.31;46.47;154022.87;1800353;79;20985;-73
2022/10/01 10:21:34;;;;;;;6.42;5.03;;;;;;;25.24;46.38;154003.22;1780313;79;21622;-72
2022/10/01 10:24:05;;;;;;;9.03;4.72;;;;;;;25.24;46.48;154003.22;1770638;79;20962;-72
2022/10/01 10:26:37;;;;;;;6.35;5.00;;;;;;;25.25;46.54;154005.83;1776138;79;21041;-73
2022/10/01 10:29:07;;;;;;;7.15;5.45;;;;;;;25.17;46.03;153987.50;1782161;79;21009;-74
2022/10/01 10:31:41;;;;;;;7.97;4.87;;;;;;;25.10;46.69;153969.17;1768687;79;21355;-74
2022/10/01 10:34:21;;;;;;;6.33;4.70;;;;;;;25.07;46.86;153961.28;1760756;80;21223;-73
2022/10/01 10:36:48;;;;;;;9.03;4.65;;;;;;;25.00;46.67;153942.95;1754294;80;21073;-74
2022/10/01 10:39:30;;;;;;;7.30;5.10;;;;;;;24.94;47.02;153927.25;1769895;79;21652;-72
2022/10/01 10:41:58;;;;;;;5.90;4.22;;;;;;;24.94;47.49;153928.53;1732341;82;20894;-74
2022/10/01 10:44:29;;;;;;;6.80;4.60;;;;;;;24.96;46.79;153932.48;1775300;80;21016;-73
2022/10/01 10:47:01;;;;;;;6.80;4.33;;;;;;;24.93;46.89;153924.63;1779816;79;21538;-73
2022/10/01 10:49:47;;;;;;;6.22;5.08;;;;;;;24.92;46.69;153922.02;1755235;78;21022;-74
2022/10/01 10:52:35;;;;;;;6.35;5.30;;;;;;;24.87;47.10;153911.53;1722660;82;21075;-72
2022/10/01 10:55:27;;;;;;;8.05;5.72;;;;;;;24.84;47.66;153903.64;1742246;81;21047;-74
2022/10/01 10:57:53;;;;;;;7.22;5.35;;;;;;;24.82;48.05;153898.41;1740462;81;21023;-73
2022/10/01 11:00:23;;;;;;;5.00;4.20;;;;;;;24.80;48.34;153893.17;1738915;81;21163;-75
2022/10/01 11:02:56;;;;;;;6.00;3.72;;;;;;;24.82;47.38;153897.13;1772561;79;21020;-74
2022/10/01 11:05:30;;;;;;;8.10;3.83;;;;;;;24.81;46.96;153895.78;1773747;80;21427;-74
2022/10/01 11:08:05;;;;;;;5.77;3.70;;;;;;;24.83;46.70;153899.73;1765834;79;20923;-74
2022/10/01 11:10:44;;;;;;;;;;;;;;;24.85;46.59;153906.25;1812440;78;21044;-73
2022/10/01 11:13:38;;;;;;;7.10;3.92;;;;;;;24.87;46.28;153911.53;1788833;78;22057;-73
2022/10/01 11:16:44;;;;;;;3.83;3.02;;;;;;;24.91;46.24;153919.39;1807310;79;21056;-72
2022/10/01 11:19:32;;;;;;;3.83;2.80;;;;;;;24.90;45.87;153918.06;1777889;78;21072;-73
2022/10/01 11:22:29;;;;;;;4.22;2.80;;;;;;;24.92;45.69;153922.02;1769039;79;21061;-63
2022/10/01 11:25:31;;;;;;;4.47;2.75;;;;;;;24.86;45.10;153908.88;1803868;78;21565;-63
2022/10/01 11:28:06;;;;;;;4.35;3.02;;;;;;;24.74;45.12;153878.70;1807134;78;21230;-64
2022/10/01 11:30:57;;;;;;;4.55;2.92;;;;;;;24.60;45.91;153843.34;1797411;78;21535;-64
2022/10/01 11:33:37;;;;;;;5.22;3.10;;;;;;;24.56;46.18;153832.87;1784157;79;21075;-63
2022/10/01 11:36:11;;;;;;;4.75;2.90;;;;;;;24.55;46.33;153830.25;1761755;79;21483;-63
2022/10/01 11:38:57;;;;;;;5.15;2.75;;;;;;;24.56;45.93;153832.87;1777389;79;21033;-65